createdAt,value
2022-10-04T00:00:40.370Z,0.00
2022-10-04T00:01:40.653Z,0.00
2022-10-04T00:02:40.400Z,0.00
2022-10-04T00:03:40.352Z,0.00
2022-10-04T00:04:40.325Z,0.00
2022-10-04T00:05:40.366Z,0.00
2022-10-04T00:06:40.326Z,0.00
2022-10-04T00:07:40.313Z,0.00
2022-10-04T00:08:40.303Z,0.00
2022-10-04T00:09:40.300Z,0.00
2022-10-04T00:10:40.271Z,0.00
2022-10-04T00:11:40.470Z,0.00
2022-10-04T00:12:40.244Z,0.00
2022-10-04T00:13:40.258Z,0.00
2022-10-04T00:14:40.236Z,0.00
2022-10-04T00:15:40.209Z,0.00
2022-10-04T00:16:40.420Z,0.00
2022-10-04T00:17:40.189Z,0.00
2022-10-04T00:18:40.169Z,0.00
2022-10-04T00:19:40.193Z,0.00
2022-10-04T00:20:40.155Z,0.00
2022-10-04T00:21:40.465Z,0.00
2022-10-04T00:22:40.172Z,0.00
2022-10-04T00:23:40.118Z,0.00
2022-10-04T00:24:40.157Z,0.00
2022-10-04T00:25:40.098Z,0.00
2022-10-04T00:26:40.089Z,0.00
2022-10-04T00:27:40.083Z,0.00
2022-10-04T00:28:40.097Z,0.00
2022-10-04T00:29:40.056Z,0.00
2022-10-04T00:30:40.077Z,0.00
2022-10-04T00:31:40.334Z,0.00
2022-10-04T00:32:40.015Z,0.00
2022-10-04T00:33:40.008Z,0.00
2022-10-04T00:34:40.021Z,0.00
2022-10-04T00:35:39.992Z,0.00
2022-10-04T00:36:39.976Z,0.00
2022-10-04T00:37:39.961Z,0.00
2022-10-04T00:38:39.967Z,0.00
2022-10-04T00:39:39.984Z,0.00
2022-10-04T00:40:39.926Z,0.00
2022-10-04T00:41:40.257Z,0.00
2022-10-04T00:42:39.903Z,0.00
2022-10-04T00:43:39.903Z,0.00
2022-10-04T00:44:39.904Z,0.00
2022-10-04T00:45:39.874Z,0.00
2022-10-04T00:46:39.857Z,0.00
2022-10-04T00:47:39.882Z,0.00
2022-10-04T00:48:39.840Z,0.00
2022-10-04T00:49:39.835Z,0.00
2022-10-04T00:50:39.841Z,0.00
2022-10-04T00:51:39.973Z,0.00
2022-10-04T00:52:39.791Z,0.00
2022-10-04T00:53:39.780Z,0.00
2022-10-04T00:54:39.795Z,0.00
2022-10-04T00:55:39.786Z,0.00
2022-10-04T00:56:39.748Z,0.00
2022-10-04T00:57:39.763Z,0.00
2022-10-04T00:58:39.749Z,0.00
2022-10-04T00:59:39.714Z,0.00
2022-10-04T01:00:39.762Z,0.00
2022-10-04T01:01:39.986Z,0.00
2022-10-04T01:02:39.756Z,0.00
2022-10-04T01:03:39.683Z,0.00
2022-10-04T01:04:39.667Z,0.00
2022-10-04T01:05:39.674Z,0.00
2022-10-04T01:06:39.641Z,0.00
2022-10-04T01:07:39.655Z,0.00
2022-10-04T01:08:39.629Z,0.00
2022-10-04T01:09:39.606Z,0.00
2022-10-04T01:10:39.718Z,0.00
2022-10-04T01:11:39.939Z,0.00
2022-10-04T01:12:39.594Z,0.00
2022-10-04T01:13:39.565Z,0.00
2022-10-04T01:14:39.546Z,0.00
2022-10-04T01:15:39.596Z,0.00
2022-10-04T01:16:39.527Z,0.00
2022-10-04T01:17:39.593Z,0.00
2022-10-04T01:18:39.521Z,0.00
2022-10-04T01:19:39.496Z,0.00
2022-10-04T01:20:39.495Z,0.00
2022-10-04T01:21:39.749Z,0.00
2022-10-04T01:22:39.461Z,0.00
2022-10-04T01:23:39.463Z,0.00
2022-10-04T01:24:39.490Z,0.00
2022-10-04T01:25:39.427Z,0.00
2022-10-04T01:26:39.450Z,0.00
2022-10-04T01:27:39.443Z,0.00
2022-10-04T01:28:39.428Z,0.00
2022-10-04T01:29:39.396Z,0.00
2022-10-04T01:30:39.463Z,0.00
2022-10-04T01:31:39.690Z,0.00
2022-10-04T01:32:39.347Z,0.00
2022-10-04T01:33:39.375Z,0.00
2022-10-04T01:34:39.329Z,0.00
2022-10-04T01:35:39.330Z,0.00
2022-10-04T01:36:39.330Z,0.00
2022-10-04T01:37:39.309Z,0.00
2022-10-04T01:38:39.318Z,0.00
2022-10-04T01:39:39.270Z,0.00
2022-10-04T01:40:39.286Z,0.00
2022-10-04T01:41:39.391Z,0.00
2022-10-04T01:42:39.254Z,0.00
2022-10-04T01:43:39.252Z,0.00
2022-10-04T01:44:39.235Z,0.00
2022-10-04T01:45:39.219Z,0.00
2022-10-04T01:46:39.318Z,0.00
2022-10-04T01:47:39.181Z,0.00
2022-10-04T01:48:39.184Z,0.00
2022-10-04T01:49:39.159Z,0.00
2022-10-04T01:50:39.160Z,0.00
2022-10-04T01:51:39.422Z,0.00
2022-10-04T01:52:39.130Z,0.00
2022-10-04T01:53:39.114Z,0.00
2022-10-04T01:54:39.118Z,0.00
2022-10-04T01:55:39.100Z,0.00
2022-10-04T01:56:39.082Z,0.00
2022-10-04T01:57:39.082Z,0.00
2022-10-04T01:58:39.093Z,0.00
2022-10-04T01:59:39.083Z,0.00
2022-10-04T02:00:39.062Z,0.00
2022-10-04T02:01:39.119Z,0.00
2022-10-04T02:02:39.041Z,0.00
2022-10-04T02:03:39.113Z,0.00
2022-10-04T02:04:39.075Z,0.00
2022-10-04T02:05:38.988Z,0.00
2022-10-04T02:06:38.969Z,0.00
2022-10-04T02:07:38.984Z,0.00
2022-10-04T02:08:39.045Z,0.00
2022-10-04T02:09:38.949Z,0.00
2022-10-04T02:10:43.273Z,0.00
2022-10-04T02:11:38.922Z,0.00
2022-10-04T02:12:38.909Z,0.00
2022-10-04T02:13:38.924Z,0.00
2022-10-04T02:14:38.988Z,0.00
2022-10-04T02:15:38.944Z,0.00
2022-10-04T02:16:38.878Z,0.00
2022-10-04T02:17:38.882Z,0.00
2022-10-04T02:18:38.939Z,0.00
2022-10-04T02:19:38.847Z,0.00
2022-10-04T02:20:38.854Z,0.00
2022-10-04T02:21:38.818Z,0.00
2022-10-04T02:22:38.793Z,0.00
2022-10-04T02:23:38.794Z,0.00
2022-10-04T02:24:38.770Z,0.00
2022-10-04T02:25:38.863Z,0.00
2022-10-04T02:26:38.751Z,0.00
2022-10-04T02:27:38.745Z,0.00
2022-10-04T02:28:38.732Z,0.00
2022-10-04T02:29:38.716Z,0.00
2022-10-04T02:30:38.723Z,0.00
2022-10-04T02:31:38.760Z,0.00
2022-10-04T02:32:38.742Z,0.00
2022-10-04T02:33:38.692Z,0.00
2022-10-04T02:34:38.671Z,0.00
2022-10-04T02:35:38.659Z,0.00
2022-10-04T02:36:38.642Z,0.00
2022-10-04T02:37:38.647Z,0.00
2022-10-04T02:38:38.641Z,0.00
2022-10-04T02:39:38.622Z,0.00
2022-10-04T02:40:38.625Z,0.00
2022-10-04T02:41:38.602Z,0.00
2022-10-04T02:42:38.598Z,0.00
2022-10-04T02:43:38.566Z,0.00
2022-10-04T02:44:38.551Z,0.00
2022-10-04T02:45:38.554Z,0.00
2022-10-04T02:46:38.740Z,0.00
2022-10-04T02:47:38.525Z,0.00
2022-10-04T02:48:38.515Z,0.00
2022-10-04T02:49:38.506Z,0.00
2022-10-04T02:50:38.509Z,0.00
2022-10-04T02:51:38.501Z,0.00
2022-10-04T02:52:38.476Z,0.00
2022-10-04T02:53:38.457Z,0.00
2022-10-04T02:54:38.439Z,0.00
2022-10-04T02:55:38.432Z,0.00
2022-10-04T02:56:38.449Z,0.00
2022-10-04T02:57:38.404Z,0.00
2022-10-04T02:58:38.392Z,0.00
2022-10-04T02:59:38.399Z,0.00
2022-10-04T03:00:38.408Z,0.00
2022-10-04T03:01:38.460Z,0.00
2022-10-04T03:02:38.485Z,0.00
2022-10-04T03:03:38.383Z,0.00
2022-10-04T03:04:38.329Z,0.00
2022-10-04T03:05:38.322Z,0.00
2022-10-04T03:06:38.331Z,0.00
2022-10-04T03:07:38.314Z,0.00
2022-10-04T03:08:38.304Z,0.00
2022-10-04T03:09:38.277Z,0.00
2022-10-04T03:10:38.264Z,0.00
2022-10-04T03:11:38.257Z,0.00
2022-10-04T03:12:38.270Z,0.00
2022-10-04T03:13:38.228Z,0.00
2022-10-04T03:14:38.216Z,0.00
2022-10-04T03:15:38.205Z,0.00
2022-10-04T03:16:38.229Z,0.00
2022-10-04T03:17:38.211Z,0.00
2022-10-04T03:18:38.201Z,0.00
2022-10-04T03:19:38.836Z,0.00
2022-10-04T03:20:38.169Z,0.00
2022-10-04T03:21:38.138Z,0.00
2022-10-04T03:22:38.127Z,0.00
2022-10-04T03:23:38.114Z,0.00
2022-10-04T03:24:38.119Z,0.00
2022-10-04T03:25:38.115Z,0.00
2022-10-04T03:26:38.255Z,0.00
2022-10-04T03:27:38.078Z,0.00
2022-10-04T03:28:38.179Z,0.00
2022-10-04T03:29:38.096Z,0.00
2022-10-04T03:30:38.049Z,0.00
2022-10-04T03:31:38.103Z,0.00
2022-10-04T03:32:38.045Z,0.00
2022-10-04T03:33:38.018Z,0.00
2022-10-04T03:34:38.020Z,0.00
2022-10-04T03:35:37.987Z,0.00
2022-10-04T03:36:38.042Z,0.00
2022-10-04T03:37:37.978Z,0.00
2022-10-04T03:38:38.047Z,0.00
2022-10-04T03:39:37.949Z,0.00
2022-10-04T03:40:37.935Z,0.00
2022-10-04T03:41:37.915Z,0.00
2022-10-04T03:42:37.995Z,0.00
2022-10-04T03:43:37.900Z,0.00
2022-10-04T03:44:37.883Z,0.00
2022-10-04T03:45:37.914Z,0.00
2022-10-04T03:46:37.937Z,0.00
2022-10-04T03:47:37.899Z,0.00
2022-10-04T03:48:37.848Z,0.00
2022-10-04T03:49:37.853Z,0.00
2022-10-04T03:50:37.845Z,0.00
2022-10-04T03:51:37.822Z,0.00
2022-10-04T03:52:37.803Z,0.00
2022-10-04T03:53:37.888Z,0.00
2022-10-04T03:54:37.783Z,0.00
2022-10-04T03:55:37.789Z,0.00
2022-10-04T03:56:37.803Z,0.00
2022-10-04T03:57:37.741Z,0.00
2022-10-04T03:58:37.748Z,0.00
2022-10-04T03:59:37.744Z,0.00
2022-10-04T04:00:37.770Z,0.00
2022-10-04T04:01:37.876Z,0.00
2022-10-04T04:02:40.360Z,0.00
2022-10-04T04:03:37.704Z,0.00
2022-10-04T04:04:37.697Z,0.00
2022-10-04T04:05:37.663Z,0.00
2022-10-04T04:06:37.757Z,0.00
2022-10-04T04:07:37.636Z,0.00
2022-10-04T04:08:37.629Z,0.00
2022-10-04T04:09:37.621Z,0.00
2022-10-04T04:10:37.597Z,0.00
2022-10-04T04:11:37.613Z,0.00
2022-10-04T04:12:37.574Z,0.00
2022-10-04T04:13:37.564Z,0.00
2022-10-04T04:14:37.573Z,0.00
2022-10-04T04:15:37.551Z,0.00
2022-10-04T04:16:37.703Z,0.00
2022-10-04T04:17:37.552Z,0.00
2022-10-04T04:18:37.531Z,0.00
2022-10-04T04:19:37.515Z,0.00
2022-10-04T04:20:37.512Z,0.00
2022-10-04T04:21:37.480Z,0.00
2022-10-04T04:22:37.486Z,0.00
2022-10-04T04:23:37.474Z,0.00
2022-10-04T04:24:37.491Z,0.00
2022-10-04T04:25:37.438Z,0.00
2022-10-04T04:26:37.519Z,0.00
2022-10-04T04:27:37.413Z,0.00
2022-10-04T04:28:37.542Z,0.00
2022-10-04T04:29:37.416Z,0.00
2022-10-04T04:30:37.377Z,0.00
2022-10-04T04:31:37.431Z,0.00
2022-10-04T04:32:37.378Z,0.00
2022-10-04T04:33:37.345Z,0.00
2022-10-04T04:34:37.342Z,0.00
2022-10-04T04:35:37.321Z,0.00
2022-10-04T04:36:37.365Z,0.00
2022-10-04T04:37:37.300Z,0.00
2022-10-04T04:38:37.314Z,0.00
2022-10-04T04:39:37.523Z,0.00
2022-10-04T04:40:37.282Z,0.00
2022-10-04T04:41:37.292Z,0.00
2022-10-04T04:42:37.245Z,0.00
2022-10-04T04:43:37.246Z,0.00
2022-10-04T04:44:37.268Z,0.00
2022-10-04T04:45:37.277Z,0.00
2022-10-04T04:46:37.375Z,0.00
2022-10-04T04:47:37.238Z,0.00
2022-10-04T04:48:37.234Z,0.00
2022-10-04T04:49:37.184Z,0.00
2022-10-04T04:50:37.182Z,0.00
2022-10-04T04:51:37.147Z,0.00
2022-10-04T04:52:37.155Z,0.00
2022-10-04T04:53:37.193Z,0.00
2022-10-04T04:54:37.131Z,0.00
2022-10-04T04:56:01.890Z,4.00
2022-10-04T04:56:37.095Z,0.00
2022-10-04T04:57:37.084Z,0.00
2022-10-04T04:58:37.091Z,4.00
2022-10-04T04:59:37.111Z,4.00
2022-10-04T05:00:37.047Z,0.00
2022-10-04T05:01:37.037Z,0.00
2022-10-04T05:02:37.097Z,4.00
2022-10-04T05:03:37.030Z,4.00
2022-10-04T05:04:37.024Z,4.00
2022-10-04T05:05:36.990Z,4.00
2022-10-04T05:06:36.992Z,4.00
2022-10-04T05:07:36.994Z,4.00
2022-10-04T05:08:41.211Z,8.00
2022-10-04T05:09:36.952Z,8.00
2022-10-04T05:10:36.963Z,8.00
2022-10-04T05:11:37.010Z,8.00
2022-10-04T05:12:36.933Z,8.00
2022-10-04T05:13:36.934Z,12.00
2022-10-04T05:14:36.893Z,12.00
2022-10-04T05:15:36.886Z,12.00
2022-10-04T05:16:36.992Z,16.00
2022-10-04T05:17:36.856Z,16.00
2022-10-04T05:18:36.876Z,20.00
2022-10-04T05:19:36.879Z,20.00
2022-10-04T05:20:36.830Z,24.00
2022-10-04T05:21:39.691Z,24.00
2022-10-04T05:22:36.806Z,24.00
2022-10-04T05:23:36.791Z,28.00
2022-10-04T05:24:36.814Z,28.00
2022-10-04T05:25:36.780Z,36.00
2022-10-04T05:26:36.785Z,36.00
2022-10-04T05:27:36.762Z,40.00
2022-10-04T05:28:36.795Z,44.00
2022-10-04T05:29:36.753Z,48.00
2022-10-04T05:30:36.722Z,52.00
2022-10-04T05:31:36.743Z,56.00
2022-10-04T05:32:36.705Z,60.00
2022-10-04T05:33:36.738Z,68.00
2022-10-04T05:34:36.683Z,68.00
2022-10-04T05:35:36.660Z,72.00
2022-10-04T05:36:36.660Z,76.00
2022-10-04T05:37:36.636Z,76.00
2022-10-04T05:38:36.637Z,84.00
2022-10-04T05:39:36.644Z,84.00
2022-10-04T05:40:36.623Z,84.00
2022-10-04T05:41:36.629Z,84.00
2022-10-04T05:42:36.687Z,88.00
2022-10-04T05:43:36.575Z,88.00
2022-10-04T05:44:36.580Z,88.00
2022-10-04T05:45:36.638Z,88.00
2022-10-04T05:46:39.697Z,88.00
2022-10-04T05:47:36.601Z,88.00
2022-10-04T05:48:36.516Z,88.00
2022-10-04T05:49:36.521Z,88.00
2022-10-04T05:50:36.516Z,92.00
2022-10-04T05:51:36.483Z,92.00
2022-10-04T05:52:36.479Z,96.00
2022-10-04T05:53:36.471Z,100.00
2022-10-04T05:54:36.452Z,104.00
2022-10-04T05:55:36.456Z,108.00
2022-10-04T05:56:36.448Z,112.00
2022-10-04T05:57:36.413Z,108.00
2022-10-04T05:58:36.440Z,112.00
2022-10-04T05:59:36.400Z,112.00
2022-10-04T06:00:36.389Z,108.00
2022-10-04T06:01:36.521Z,112.00
2022-10-04T06:02:36.470Z,112.00
2022-10-04T06:03:36.350Z,108.00
2022-10-04T06:04:36.341Z,112.00
2022-10-04T06:05:36.338Z,116.00
2022-10-04T06:06:36.320Z,124.00
2022-10-04T06:07:36.354Z,128.00
2022-10-04T06:08:36.318Z,136.00
2022-10-04T06:09:36.303Z,140.00
2022-10-04T06:10:36.274Z,144.00
2022-10-04T06:11:36.290Z,148.00
2022-10-04T06:12:36.252Z,148.00
2022-10-04T06:13:36.247Z,144.00
2022-10-04T06:14:36.283Z,148.00
2022-10-04T06:15:36.235Z,140.00
2022-10-04T06:16:36.313Z,140.00
2022-10-04T06:17:36.239Z,140.00
2022-10-04T06:18:36.191Z,140.00
2022-10-04T06:19:36.192Z,140.00
2022-10-04T06:20:36.189Z,140.00
2022-10-04T06:21:36.153Z,136.00
2022-10-04T06:22:36.153Z,140.00
2022-10-04T06:23:36.134Z,136.00
2022-10-04T06:24:36.126Z,136.00
2022-10-04T06:25:36.133Z,140.00
2022-10-04T06:26:36.112Z,140.00
2022-10-04T06:27:36.093Z,140.00
2022-10-04T06:28:36.119Z,140.00
2022-10-04T06:29:36.066Z,140.00
2022-10-04T06:30:36.168Z,140.00
2022-10-04T06:31:36.072Z,136.00
2022-10-04T06:32:36.031Z,144.00
2022-10-04T06:33:36.028Z,144.00
2022-10-04T06:34:36.015Z,148.00
2022-10-04T06:35:36.030Z,144.00
2022-10-04T06:36:35.988Z,148.00
2022-10-04T06:37:35.977Z,156.00
2022-10-04T06:38:35.978Z,160.00
2022-10-04T06:39:35.978Z,160.00
2022-10-04T06:40:35.965Z,164.00
2022-10-04T06:41:35.936Z,164.00
2022-10-04T06:42:35.938Z,164.00
2022-10-04T06:43:35.911Z,164.00
2022-10-04T06:44:35.913Z,168.00
2022-10-04T06:45:35.890Z,168.00
2022-10-04T06:46:36.044Z,172.00
2022-10-04T06:47:35.889Z,168.00
2022-10-04T06:48:35.900Z,168.00
2022-10-04T06:49:35.871Z,172.00
2022-10-04T06:50:35.853Z,176.00
2022-10-04T06:51:35.823Z,180.00
2022-10-04T06:52:35.833Z,180.00
2022-10-04T06:53:35.807Z,184.00
2022-10-04T06:54:35.799Z,196.00
2022-10-04T06:55:35.808Z,204.00
2022-10-04T06:56:35.772Z,216.00
2022-10-04T06:57:35.775Z,224.00
2022-10-04T06:58:35.747Z,236.00
2022-10-04T06:59:35.743Z,244.00
2022-10-04T07:00:35.725Z,248.00
2022-10-04T07:01:35.789Z,252.00
2022-10-04T07:02:35.839Z,252.00
2022-10-04T07:03:36.243Z,248.00
2022-10-04T07:05:03.110Z,248.00
2022-10-04T07:05:35.682Z,244.00
2022-10-04T07:06:35.655Z,240.00
2022-10-04T07:07:35.675Z,236.00
2022-10-04T07:08:35.652Z,232.00
2022-10-04T07:09:35.635Z,228.00
2022-10-04T07:10:35.625Z,224.00
2022-10-04T07:11:35.657Z,216.00
2022-10-04T07:12:35.625Z,208.00
2022-10-04T07:13:35.579Z,200.00
2022-10-04T07:14:35.592Z,196.00
2022-10-04T07:15:35.701Z,192.00
2022-10-04T07:16:35.549Z,204.00
2022-10-04T07:17:35.544Z,212.00
2022-10-04T07:18:35.562Z,220.00
2022-10-04T07:19:35.514Z,236.00
2022-10-04T07:20:35.579Z,244.00
2022-10-04T07:21:35.492Z,260.00
2022-10-04T07:22:35.485Z,276.00
2022-10-04T07:23:35.494Z,288.00
2022-10-04T07:24:35.485Z,300.00
2022-10-04T07:25:35.458Z,300.00
2022-10-04T07:26:35.449Z,304.00
2022-10-04T07:27:35.424Z,304.00
2022-10-04T07:28:35.552Z,300.00
2022-10-04T07:29:39.891Z,300.00
2022-10-04T07:30:35.481Z,300.00
2022-10-04T07:31:35.423Z,300.00
2022-10-04T07:32:35.378Z,300.00
2022-10-04T07:33:35.364Z,312.00
2022-10-04T07:34:35.373Z,288.00
2022-10-04T07:35:35.411Z,292.00
2022-10-04T07:36:35.341Z,308.00
2022-10-04T07:37:35.312Z,304.00
2022-10-04T07:38:35.310Z,320.00
2022-10-04T07:39:35.294Z,304.00
2022-10-04T07:40:35.290Z,300.00
2022-10-04T07:41:35.295Z,300.00
2022-10-04T07:42:35.260Z,312.00
2022-10-04T07:43:35.247Z,320.00
2022-10-04T07:44:35.244Z,328.00
2022-10-04T07:45:35.238Z,328.00
2022-10-04T07:46:35.314Z,340.00
2022-10-04T07:47:35.204Z,340.00
2022-10-04T07:48:35.205Z,344.00
2022-10-04T07:49:35.187Z,352.00
2022-10-04T07:50:35.214Z,348.00
2022-10-04T07:51:35.183Z,356.00
2022-10-04T07:52:35.164Z,360.00
2022-10-04T07:53:35.134Z,368.00
2022-10-04T07:54:35.123Z,360.00
2022-10-04T07:55:35.117Z,360.00
2022-10-04T07:56:35.110Z,372.00
2022-10-04T07:57:35.112Z,388.00
2022-10-04T07:58:35.078Z,412.00
2022-10-04T07:59:35.080Z,424.00
2022-10-04T08:00:35.081Z,424.00
2022-10-04T08:01:35.101Z,420.00
2022-10-04T08:02:35.157Z,400.00
2022-10-04T08:03:35.129Z,388.00
2022-10-04T08:04:35.012Z,384.00
2022-10-04T08:05:35.002Z,384.00
2022-10-04T08:06:35.020Z,376.00
2022-10-04T08:07:35.006Z,368.00
2022-10-04T08:08:34.979Z,364.00
2022-10-04T08:09:34.992Z,364.00
2022-10-04T08:10:34.990Z,364.00
2022-10-04T08:11:34.938Z,368.00
2022-10-04T08:12:34.934Z,372.00
2022-10-04T08:13:34.912Z,376.00
2022-10-04T08:14:34.905Z,380.00
2022-10-04T08:15:34.987Z,388.00
2022-10-04T08:16:34.899Z,392.00
2022-10-04T08:17:34.869Z,396.00
2022-10-04T08:18:34.855Z,400.00
2022-10-04T08:19:34.846Z,400.00
2022-10-04T08:20:34.856Z,404.00
2022-10-04T08:21:34.826Z,412.00
2022-10-04T08:22:34.838Z,420.00
2022-10-04T08:23:34.807Z,432.00
2022-10-04T08:24:34.810Z,436.00
2022-10-04T08:25:34.784Z,436.00
2022-10-04T08:26:34.789Z,432.00
2022-10-04T08:27:34.789Z,424.00
2022-10-04T08:28:34.804Z,416.00
2022-10-04T08:29:34.761Z,416.00
2022-10-04T08:30:34.723Z,412.00
2022-10-04T08:31:34.858Z,408.00
2022-10-04T08:32:34.717Z,400.00
2022-10-04T08:33:34.691Z,400.00
2022-10-04T08:34:34.677Z,396.00
2022-10-04T08:35:34.678Z,388.00
2022-10-04T08:36:34.656Z,392.00
2022-10-04T08:37:34.659Z,392.00
2022-10-04T08:38:34.656Z,392.00
2022-10-04T08:39:35.523Z,388.00
2022-10-04T08:40:34.616Z,388.00
2022-10-04T08:41:34.622Z,388.00
2022-10-04T08:42:34.619Z,388.00
2022-10-04T08:43:34.586Z,380.00
2022-10-04T08:44:34.568Z,376.00
2022-10-04T08:45:34.562Z,368.00
2022-10-04T08:46:34.600Z,364.00
2022-10-04T08:47:34.546Z,356.00
2022-10-04T08:48:34.542Z,356.00
2022-10-04T08:49:34.576Z,364.00
2022-10-04T08:50:34.498Z,372.00
2022-10-04T08:51:34.490Z,388.00
2022-10-04T08:52:34.479Z,396.00
2022-10-04T08:53:34.475Z,412.00
2022-10-04T08:54:34.532Z,420.00
2022-10-04T08:55:34.516Z,436.00
2022-10-04T08:56:34.447Z,440.00
2022-10-04T08:57:34.424Z,452.00
2022-10-04T08:58:34.438Z,452.00
2022-10-04T08:59:34.401Z,464.00
2022-10-04T09:00:34.432Z,468.00
2022-10-04T09:01:34.443Z,460.00
2022-10-04T09:02:34.443Z,452.00
2022-10-04T09:03:34.379Z,452.00
2022-10-04T09:04:34.365Z,452.00
2022-10-04T09:05:34.335Z,448.00
2022-10-04T09:06:34.336Z,452.00
2022-10-04T09:07:34.437Z,452.00
2022-10-04T09:08:34.303Z,444.00
2022-10-04T09:09:34.311Z,440.00
2022-10-04T09:10:34.298Z,436.00
2022-10-04T09:11:34.271Z,444.00
2022-10-04T09:12:34.264Z,436.00
2022-10-04T09:13:34.270Z,432.00
2022-10-04T09:14:34.278Z,428.00
2022-10-04T09:15:34.266Z,428.00
2022-10-04T09:16:34.214Z,428.00
2022-10-04T09:17:34.207Z,428.00
2022-10-04T09:18:34.199Z,432.00
2022-10-04T09:19:34.181Z,444.00
2022-10-04T09:20:38.806Z,448.00
2022-10-04T09:21:34.198Z,456.00
2022-10-04T09:22:34.144Z,464.00
2022-10-04T09:23:34.146Z,468.00
2022-10-04T09:24:34.125Z,472.00
2022-10-04T09:25:34.145Z,492.00
2022-10-04T09:26:34.138Z,480.00
2022-10-04T09:27:54.037Z,488.00
2022-10-04T09:28:34.143Z,464.00
2022-10-04T09:29:34.080Z,460.00
2022-10-04T09:30:34.137Z,460.00
2022-10-04T09:31:34.133Z,460.00
2022-10-04T09:32:34.034Z,456.00
2022-10-04T09:33:34.040Z,452.00
2022-10-04T09:34:37.496Z,444.00
2022-10-04T09:35:34.014Z,440.00
2022-10-04T09:36:34.026Z,436.00
2022-10-04T09:37:33.992Z,432.00
2022-10-04T09:38:33.972Z,436.00
2022-10-04T09:39:33.982Z,436.00
2022-10-04T09:40:33.950Z,432.00
2022-10-04T09:41:33.959Z,432.00
2022-10-04T09:42:33.945Z,432.00
2022-10-04T09:43:33.915Z,432.00
2022-10-04T09:44:33.924Z,420.00
2022-10-04T09:45:33.892Z,412.00
2022-10-04T09:46:33.947Z,408.00
2022-10-04T09:47:33.893Z,404.00
2022-10-04T09:48:33.857Z,396.00
2022-10-04T09:49:33.870Z,380.00
2022-10-04T09:50:33.843Z,372.00
2022-10-04T09:51:33.825Z,368.00
2022-10-04T09:52:33.827Z,352.00
2022-10-04T09:53:33.816Z,352.00
2022-10-04T09:54:33.793Z,340.00
2022-10-04T09:55:33.782Z,340.00
2022-10-04T09:56:33.806Z,336.00
2022-10-04T09:57:33.784Z,344.00
2022-10-04T09:58:33.774Z,356.00
2022-10-04T09:59:33.753Z,444.00
2022-10-04T10:00:33.726Z,484.00
2022-10-04T10:01:33.771Z,480.00
2022-10-04T10:02:33.789Z,424.00
2022-10-04T10:03:33.695Z,504.00
2022-10-04T10:04:33.697Z,512.00
2022-10-04T10:05:33.695Z,520.00
2022-10-04T10:06:33.661Z,484.00
2022-10-04T10:07:33.649Z,416.00
2022-10-04T10:08:33.660Z,472.00
2022-10-04T10:09:33.627Z,440.00
2022-10-04T10:10:33.629Z,500.00
2022-10-04T10:11:33.647Z,396.00
2022-10-04T10:12:33.606Z,376.00
2022-10-04T10:13:33.614Z,356.00
2022-10-04T10:14:33.589Z,412.00
2022-10-04T10:15:33.783Z,376.00
2022-10-04T10:16:33.559Z,328.00
2022-10-04T10:17:33.539Z,352.00
2022-10-04T10:18:33.529Z,468.00
2022-10-04T10:19:33.602Z,456.00
2022-10-04T10:20:33.524Z,368.00
2022-10-04T10:21:33.508Z,348.00
2022-10-04T10:22:33.493Z,452.00
2022-10-04T10:23:33.476Z,432.00
2022-10-04T10:24:33.466Z,360.00
2022-10-04T10:25:33.482Z,500.00
2022-10-04T10:26:33.472Z,488.00
2022-10-04T10:27:33.447Z,428.00
2022-10-04T10:28:33.483Z,516.00
2022-10-04T10:29:33.424Z,496.00
2022-10-04T10:30:33.467Z,500.00
2022-10-04T10:31:33.486Z,492.00
2022-10-04T10:32:33.379Z,472.00
2022-10-04T10:33:33.366Z,428.00
2022-10-04T10:34:33.394Z,496.00
2022-10-04T10:35:33.407Z,492.00
2022-10-04T10:36:33.355Z,488.00
2022-10-04T10:37:33.339Z,500.00
2022-10-04T10:38:33.309Z,500.00
2022-10-04T10:39:33.317Z,500.00
2022-10-04T10:40:33.307Z,500.00
2022-10-04T10:41:33.296Z,496.00
2022-10-04T10:42:33.266Z,492.00
2022-10-04T10:43:33.254Z,492.00
2022-10-04T10:44:33.244Z,492.00
2022-10-04T10:45:33.244Z,492.00
2022-10-04T10:46:33.370Z,488.00
2022-10-04T10:47:33.300Z,476.00
2022-10-04T10:48:33.200Z,476.00
2022-10-04T10:49:33.193Z,468.00
2022-10-04T10:50:33.205Z,468.00
2022-10-04T10:51:33.300Z,464.00
2022-10-04T10:52:33.152Z,464.00
2022-10-04T10:53:33.215Z,460.00
2022-10-04T10:54:33.138Z,456.00
2022-10-04T10:55:33.151Z,448.00
2022-10-04T10:56:33.119Z,448.00
2022-10-04T10:57:33.137Z,444.00
2022-10-04T10:58:33.087Z,444.00
2022-10-04T10:59:33.087Z,448.00
2022-10-04T11:00:33.072Z,444.00
2022-10-04T11:01:33.212Z,444.00
2022-10-04T11:02:48.682Z,440.00
2022-10-04T11:03:34.153Z,444.00
2022-10-04T11:04:33.031Z,440.00
2022-10-04T11:05:33.007Z,448.00
2022-10-04T11:06:33.007Z,448.00
2022-10-04T11:07:32.987Z,448.00
2022-10-04T11:08:33.012Z,464.00
2022-10-04T11:09:32.988Z,400.00
2022-10-04T11:10:32.963Z,452.00
2022-10-04T11:11:32.976Z,452.00
2022-10-04T11:12:32.959Z,456.00
2022-10-04T11:13:32.936Z,464.00
2022-10-04T11:14:32.916Z,368.00
2022-10-04T11:15:32.901Z,356.00
2022-10-04T11:16:33.012Z,304.00
2022-10-04T11:17:32.878Z,300.00
2022-10-04T11:18:32.912Z,296.00
2022-10-04T11:19:32.861Z,276.00
2022-10-04T11:20:32.863Z,332.00
2022-10-04T11:21:32.844Z,308.00
2022-10-04T11:22:38.081Z,352.00
2022-10-04T11:23:32.812Z,296.00
2022-10-04T11:24:32.839Z,280.00
2022-10-04T11:25:32.806Z,284.00
2022-10-04T11:26:32.779Z,280.00
2022-10-04T11:27:32.766Z,304.00
2022-10-04T11:28:32.764Z,348.00
2022-10-04T11:29:32.751Z,328.00
2022-10-04T11:30:32.767Z,356.00
2022-10-04T11:31:32.805Z,364.00
2022-10-04T11:32:32.736Z,372.00
2022-10-04T11:33:32.698Z,392.00
2022-10-04T11:34:32.801Z,372.00
2022-10-04T11:35:32.698Z,352.00
2022-10-04T11:36:32.708Z,368.00
2022-10-04T11:37:32.672Z,364.00
2022-10-04T11:38:32.652Z,356.00
2022-10-04T11:39:32.631Z,344.00
2022-10-04T11:40:32.698Z,352.00
2022-10-04T11:41:32.659Z,352.00
2022-10-04T11:42:32.604Z,348.00
2022-10-04T11:43:32.601Z,344.00
2022-10-04T11:44:32.580Z,312.00
2022-10-04T11:45:32.589Z,336.00
2022-10-04T11:46:32.700Z,332.00
2022-10-04T11:47:32.542Z,324.00
2022-10-04T11:48:32.551Z,324.00
2022-10-04T11:49:32.522Z,324.00
2022-10-04T11:50:32.536Z,320.00
2022-10-04T11:51:32.561Z,324.00
2022-10-04T11:52:32.496Z,324.00
2022-10-04T11:53:32.515Z,324.00
2022-10-04T11:54:32.481Z,328.00
2022-10-04T11:55:32.481Z,328.00
2022-10-04T11:56:32.465Z,332.00
2022-10-04T11:57:32.455Z,336.00
2022-10-04T11:58:32.446Z,348.00
2022-10-04T11:59:32.514Z,356.00
2022-10-04T12:00:32.416Z,368.00
2022-10-04T12:01:32.387Z,380.00
2022-10-04T12:02:32.398Z,392.00
2022-10-04T12:03:32.417Z,396.00
2022-10-04T12:04:32.378Z,404.00
2022-10-04T12:05:32.360Z,416.00
2022-10-04T12:06:32.370Z,416.00
2022-10-04T12:07:32.362Z,424.00
2022-10-04T12:08:32.333Z,424.00
2022-10-04T12:09:32.305Z,428.00
2022-10-04T12:10:32.303Z,436.00
2022-10-04T12:11:32.285Z,448.00
2022-10-04T12:12:32.269Z,448.00
2022-10-04T12:13:32.329Z,444.00
2022-10-04T12:14:32.243Z,440.00
2022-10-04T12:15:32.229Z,436.00
2022-10-04T12:16:32.293Z,440.00
2022-10-04T12:17:32.217Z,436.00
2022-10-04T12:18:32.238Z,432.00
2022-10-04T12:19:32.232Z,432.00
2022-10-04T12:20:32.179Z,424.00
2022-10-04T12:21:32.164Z,412.00
2022-10-04T12:22:32.174Z,400.00
2022-10-04T12:23:32.175Z,396.00
2022-10-04T12:24:32.131Z,384.00
2022-10-04T12:25:32.140Z,372.00
2022-10-04T12:26:32.120Z,364.00
2022-10-04T12:27:32.102Z,352.00
2022-10-04T12:28:32.189Z,348.00
2022-10-04T12:29:32.088Z,336.00
2022-10-04T12:30:32.063Z,328.00
2022-10-04T12:31:32.143Z,328.00
2022-10-04T12:32:32.047Z,316.00
2022-10-04T12:33:32.033Z,312.00
2022-10-04T12:34:32.046Z,312.00
2022-10-04T12:35:32.007Z,304.00
2022-10-04T12:36:31.998Z,300.00
2022-10-04T12:37:31.984Z,296.00
2022-10-04T12:38:32.018Z,296.00
2022-10-04T12:39:31.967Z,292.00
2022-10-04T12:40:31.973Z,292.00
2022-10-04T12:41:31.939Z,292.00
2022-10-04T12:42:32.763Z,288.00
2022-10-04T12:43:31.938Z,288.00
2022-10-04T12:44:31.924Z,284.00
2022-10-04T12:45:31.992Z,288.00
2022-10-04T12:46:31.907Z,288.00
2022-10-04T12:47:31.897Z,284.00
2022-10-04T12:48:31.866Z,284.00
2022-10-04T12:49:31.851Z,284.00